Time;durP1;ratioP1;P1;durP2;ratioP2;P2;SDS_P1;SDS_P2;PMS_P1;PMS_P2;Temp;Humidity;BMP_temperature;BMP_pressure;BME280_temperature;BME280_humidity;BME280_pressure;Samples;Min_cycle;Max_cycle;Signal;HPM_P1;HPM_P2
2024/01/12 00:01:58;;;;;;;42.03;17.40;;;;;;;;;;4993118;28;20070;-66
2024/01/12 00:04:26;;;;;;;40.50;15.82;;;;;;;;;;4996783;28;20377;-66
2024/01/12 00:06:54;;;;;;;42.80;17.30;;;;;;;;;;4979897;28;20502;-66
2024/01/12 00:09:22;;;;;;;40.45;15.90;;;;;;;;;;4979160;28;20504;-67
2024/01/12 00:11:49;;;;;;;39.63;16.48;;;;;;;;;;4996649;28;20046;-66
2024/01/12 00:14:17;;;;;;;39.50;15.85;;;;;;;;;;4996284;28;20042;-66
2024/01/12 00:16:48;;;;;;;40.40;16.77;;;;;;;;;;4996350;28;20051;-66
2024/01/12 00:19:17;;;;;;;42.35;16.48;;;;;;;;;;4996450;28;20114;-66
2024/01/12 00:21:45;;;;;;;39.05;16.95;;;;;;;;;;4996425;28;20042;-65
2024/01/12 00:24:12;;;;;;;41.97;17.27;;;;;;;;;;4996549;28;20459;-65
2024/01/12 00:26:40;;;;;;;41.83;17.50;;;;;;;;;;4996392;28;20089;-66
2024/01/12 00:29:07;;;;;;;40.05;16.23;;;;;;;;;;4996344;28;20050;-65
2024/01/12 00:31:35;;;;;;;42.30;16.90;;;;;;;;;;4996329;28;20072;-65
2024/01/12 00:34:02;;;;;;;39.90;16.00;;;;;;;;;;4996262;28;20049;-66
2024/01/12 00:36:30;;;;;;;43.28;17.33;;;;;;;;;;4996395;28;20125;-65
2024/01/12 00:38:57;;;;;;;36.65;15.25;;;;;;;;;;4996385;28;20042;-65
2024/01/12 00:41:25;;;;;;;37.53;16.20;;;;;;;;;;4996139;28;20042;-66
2024/01/12 00:43:53;;;;;;;34.08;15.18;;;;;;;;;;4996040;28;20452;-66
2024/01/12 00:46:20;;;;;;;41.30;16.30;;;;;;;;;;4995936;28;20049;-66
2024/01/12 00:48:50;;;;;;;41.47;16.38;;;;;;;;;;4996116;28;20053;-66
2024/01/12 00:51:18;;;;;;;37.08;15.57;;;;;;;;;;4978791;28;20097;-66
2024/01/12 00:53:45;;;;;;;39.97;16.33;;;;;;;;;;4995803;28;20038;-66
2024/01/12 00:56:13;;;;;;;36.65;16.17;;;;;;;;;;4995758;28;20104;-66
2024/01/12 00:58:40;;;;;;;36.50;15.80;;;;;;;;;;4995774;28;20043;-66
2024/01/12 01:01:08;;;;;;;41.25;16.92;;;;;;;;;;4996087;28;20534;-66
2024/01/12 01:03:39;;;;;;;40.22;16.30;;;;;;;;;;4995631;28;20034;-66
2024/01/12 01:06:07;;;;;;;35.20;16.92;;;;;;;;;;4995664;28;20511;-66
2024/01/12 01:08:34;;;;;;;41.88;16.40;;;;;;;;;;4995681;28;20042;-66
2024/01/12 01:11:02;;;;;;;39.10;16.80;;;;;;;;;;4978108;28;20109;-66
2024/01/12 01:13:31;;;;;;;38.60;15.20;;;;;;;;;;4995112;28;20038;-66
2024/01/12 01:15:59;;;;;;;36.80;17.35;;;;;;;;;;4977519;28;20059;-66
2024/01/12 01:18:28;;;;;;;40.63;15.55;;;;;;;;;;4995418;28;20046;-67
2024/01/12 01:20:59;;;;;;;35.60;15.75;;;;;;;;;;4995360;28;20431;-66
2024/01/12 01:23:27;;;;;;;36.78;16.52;;;;;;;;;;4995500;28;20089;-66
2024/01/12 01:25:54;;;;;;;40.42;16.52;;;;;;;;;;4995295;28;20049;-66
2024/01/12 01:28:22;;;;;;;38.80;16.90;;;;;;;;;;4995271;28;20065;-66
2024/01/12 01:30:49;;;;;;;37.17;16.38;;;;;;;;;;4995211;28;20039;-66
2024/01/12 01:33:17;;;;;;;37.42;15.48;;;;;;;;;;4995471;28;20118;-66
2024/01/12 01:35:45;;;;;;;36.83;16.50;;;;;;;;;;4995036;28;20045;-65
2024/01/12 01:38:13;;;;;;;39.08;15.93;;;;;;;;;;4995335;28;20456;-65
2024/01/12 01:40:42;;;;;;;36.08;15.73;;;;;;;;;;4995152;28;20151;-65
2024/01/12 01:43:10;;;;;;;39.60;15.98;;;;;;;;;;4994986;28;20400;-65
2024/01/12 01:45:38;;;;;;;36.47;16.00;;;;;;;;;;4995098;28;20051;-65
2024/01/12 01:48:06;;;;;;;36.60;15.07;;;;;;;;;;4994835;28;20499;-66
2024/01/12 01:50:34;;;;;;;36.97;15.52;;;;;;;;;;4994777;28;20082;-65
2024/01/12 01:53:03;;;;;;;38.13;15.45;;;;;;;;;;4994771;28;20050;-65
2024/01/12 01:55:31;;;;;;;34.90;15.05;;;;;;;;;;4994666;28;20069;-65
2024/01/12 01:58:00;;;;;;;37.03;15.48;;;;;;;;;;4994630;28;20042;-66
2024/01/12 02:00:28;;;;;;;32.05;14.60;;;;;;;;;;4994591;28;20056;-66
2024/01/12 02:02:55;;;;;;;36.20;16.15;;;;;;;;;;4994601;28;20049;-66
2024/01/12 02:05:23;;;;;;;36.22;14.73;;;;;;;;;;4994555;28;20035;-66
2024/01/12 02:07:51;;;;;;;32.55;14.98;;;;;;;;;;4994429;28;20049;-65
2024/01/12 02:10:21;;;;;;;36.60;15.77;;;;;;;;;;4994341;28;20057;-66
2024/01/12 02:12:48;;;;;;;33.92;14.82;;;;;;;;;;4994416;28;20046;-65
2024/01/12 02:15:18;;;;;;;36.92;15.13;;;;;;;;;;4994247;28;20042;-66
2024/01/12 02:17:45;;;;;;;38.63;15.63;;;;;;;;;;4994114;28;20058;-66
2024/01/12 02:20:13;;;;;;;36.35;14.85;;;;;;;;;;4977315;28;20156;-66
2024/01/12 02:22:41;;;;;;;31.33;15.20;;;;;;;;;;4977290;28;20436;-66
2024/01/12 02:25:08;;;;;;;34.60;15.52;;;;;;;;;;4994245;28;20050;-66
2024/01/12 02:27:36;;;;;;;33.40;15.30;;;;;;;;;;4994302;28;20047;-66
2024/01/12 02:30:04;;;;;;;31.20;13.82;;;;;;;;;;4994278;28;20054;-66
2024/01/12 02:32:32;;;;;;;35.00;15.95;;;;;;;;;;4994166;28;20565;-66
2024/01/12 02:34:59;;;;;;;32.20;14.45;;;;;;;;;;4993940;28;20048;-66
2024/01/12 02:37:27;;;;;;;32.63;14.57;;;;;;;;;;4994021;28;20038;-66
2024/01/12 02:39:54;;;;;;;33.35;15.43;;;;;;;;;;4993816;28;20053;-66
2024/01/12 02:42:22;;;;;;;32.63;14.73;;;;;;;;;;4993888;28;20042;-66
2024/01/12 02:44:49;;;;;;;31.88;15.90;;;;;;;;;;4993562;28;20042;-66
2024/01/12 02:47:17;;;;;;;34.10;15.05;;;;;;;;;;4993801;28;20038;-66
2024/01/12 02:49:44;;;;;;;30.15;14.73;;;;;;;;;;4976822;28;20046;-66
2024/01/12 02:52:12;;;;;;;37.58;15.68;;;;;;;;;;4993864;28;20038;-65
2024/01/12 02:54:39;;;;;;;32.72;14.52;;;;;;;;;;4993838;28;20042;-65
2024/01/12 02:57:08;;;;;;;32.65;15.13;;;;;;;;;;4993486;28;20528;-66
2024/01/12 02:59:36;;;;;;;32.20;14.40;;;;;;;;;;4976328;28;20480;-66
2024/01/12 03:02:03;;;;;;;32.75;14.75;;;;;;;;;;4993525;28;20042;-66
2024/01/12 03:04:32;;;;;;;29.23;14.55;;;;;;;;;;4993785;28;20042;-66
2024/01/12 03:06:59;;;;;;;28.63;14.27;;;;;;;;;;4993356;28;20047;-66
2024/01/12 03:09:27;;;;;;;33.47;14.95;;;;;;;;;;4993444;28;20038;-66
2024/01/12 03:11:54;;;;;;;31.27;14.70;;;;;;;;;;4993542;28;20058;-66
2024/01/12 03:14:22;;;;;;;32.97;15.98;;;;;;;;;;4993549;28;20504;-66
2024/01/12 03:16:49;;;;;;;32.50;15.07;;;;;;;;;;4993181;28;20058;-66
2024/01/12 03:19:17;;;;;;;28.80;13.57;;;;;;;;;;4993281;28;20580;-66
2024/01/12 03:21:45;;;;;;;31.35;14.80;;;;;;;;;;4993379;28;20042;-66
2024/01/12 03:24:12;;;;;;;30.02;14.10;;;;;;;;;;4993296;28;20042;-66
2024/01/12 03:26:40;;;;;;;28.40;14.60;;;;;;;;;;4993227;28;20046;-66
2024/01/12 03:29:08;;;;;;;28.60;13.65;;;;;;;;;;4993267;28;20035;-65
2024/01/12 03:31:35;;;;;;;31.90;14.07;;;;;;;;;;4993156;28;20489;-65
2024/01/12 03:34:03;;;;;;;30.02;14.32;;;;;;;;;;4993124;28;20531;-67
2024/01/12 03:36:31;;;;;;;29.27;14.68;;;;;;;;;;4975794;28;20050;-66
2024/01/12 03:38:58;;;;;;;26.75;13.48;;;;;;;;;;4992876;28;20043;-67
2024/01/12 03:41:26;;;;;;;32.03;14.75;;;;;;;;;;4992958;28;20057;-66
2024/01/12 03:43:54;;;;;;;26.48;14.32;;;;;;;;;;4975845;28;20042;-67
2024/01/12 03:46:23;;;;;;;29.63;14.30;;;;;;;;;;4993045;28;20085;-66
2024/01/12 03:48:50;;;;;;;29.23;13.77;;;;;;;;;;4993003;28;20045;-66
2024/01/12 03:51:18;;;;;;;29.58;14.77;;;;;;;;;;4992916;28;20057;-66
2024/01/12 03:53:45;;;;;;;31.10;14.32;;;;;;;;;;4993121;28;20039;-66
2024/01/12 03:56:13;;;;;;;30.38;13.63;;;;;;;;;;4975782;28;20050;-67
2024/01/12 03:58:40;;;;;;;27.00;13.25;;;;;;;;;;4992986;28;20518;-66
2024/01/12 04:01:08;;;;;;;27.98;14.25;;;;;;;;;;4992852;28;20050;-66
2024/01/12 04:03:36;;;;;;;30.50;14.27;;;;;;;;;;4992912;28;20050;-66
2024/01/12 04:06:12;;;;;;;27.95;13.35;;;;;;;;;;4992909;28;20105;-66
2024/01/12 04:08:40;;;;;;;28.52;13.80;;;;;;;;;;4992871;28;20038;-66
2024/01/12 04:11:08;;;;;;;27.60;13.65;;;;;;;;;;4992802;28;20065;-66
2024/01/12 04:13:35;;;;;;;25.92;13.40;;;;;;;;;;4975418;28;20057;-66
2024/01/12 04:16:03;;;;;;;28.27;13.30;;;;;;;;;;4992502;28;20409;-66
2024/01/12 04:18:32;;;;;;;28.02;12.40;;;;;;;;;;4993022;28;20683;-66
2024/01/12 04:21:00;;;;;;;27.42;13.00;;;;;;;;;;4992713;28;20038;-66
2024/01/12 04:23:28;;;;;;;28.92;13.25;;;;;;;;;;4992818;28;20077;-66
2024/01/12 04:25:55;;;;;;;32.75;13.18;;;;;;;;;;4975827;28;20121;-66
2024/01/12 04:28:23;;;;;;;30.83;12.68;;;;;;;;;;4992669;28;20097;-67
2024/01/12 04:30:50;;;;;;;27.90;13.10;;;;;;;;;;4992707;28;20137;-66
2024/01/12 04:33:18;;;;;;;28.63;13.77;;;;;;;;;;4992620;28;20050;-66
2024/01/12 04:35:46;;;;;;;26.27;12.93;;;;;;;;;;4992502;28;20031;-66
2024/01/12 04:38:14;;;;;;;29.92;13.52;;;;;;;;;;4992502;28;20046;-67
2024/01/12 04:40:41;;;;;;;29.05;14.10;;;;;;;;;;4975128;28;20042;-66
2024/01/12 04:43:09;;;;;;;31.48;14.13;;;;;;;;;;4994734;28;20058;-65
2024/01/12 04:45:36;;;;;;;32.80;13.90;;;;;;;;;;4975730;28;20044;-68
2024/01/12 04:48:06;;;;;;;28.90;14.50;;;;;;;;;;4992413;28;20050;-68
2024/01/12 04:50:34;;;;;;;27.17;13.20;;;;;;;;;;4994829;28;20034;-69
2024/01/12 04:53:02;;;;;;;31.67;15.75;;;;;;;;;;4978904;28;20411;-69
2024/01/12 04:55:29;;;;;;;33.15;16.17;;;;;;;;;;4995971;28;20428;-69
2024/01/12 04:57:57;;;;;;;28.52;13.48;;;;;;;;;;4995966;28;20411;-69
2024/01/12 05:00:24;;;;;;;27.85;13.20;;;;;;;;;;4978270;28;20053;-69
2024/01/12 05:02:52;;;;;;;34.22;15.13;;;;;;;;;;4995702;28;20049;-69
2024/01/12 05:05:20;;;;;;;29.25;14.15;;;;;;;;;;4995708;28;20054;-69
2024/01/12 05:07:47;;;;;;;30.02;13.75;;;;;;;;;;4995590;28;20038;-70
2024/01/12 05:10:15;;;;;;;30.17;14.98;;;;;;;;;;4995708;28;20121;-69
2024/01/12 05:12:43;;;;;;;27.58;13.57;;;;;;;;;;4995572;28;20053;-69
2024/01/12 05:15:11;;;;;;;28.33;14.05;;;;;;;;;;4995899;28;20050;-69
2024/01/12 05:17:38;;;;;;;32.70;14.68;;;;;;;;;;4995398;28;20046;-69
2024/01/12 05:20:07;;;;;;;28.58;14.70;;;;;;;;;;4994038;28;20034;-69
2024/01/12 05:22:36;;;;;;;30.10;15.25;;;;;;;;;;4976075;28;20053;-69
2024/01/12 05:25:04;;;;;;;31.70;15.18;;;;;;;;;;4993443;28;20498;-70
2024/01/12 05:27:32;;;;;;;30.98;14.88;;;;;;;;;;4976101;28;20133;-70
2024/01/12 05:30:00;;;;;;;30.30;14.82;;;;;;;;;;4993813;28;20054;-70
2024/01/12 05:32:31;;;;;;;31.15;16.42;;;;;;;;;;4976395;28;20121;-70
2024/01/12 05:34:59;;;;;;;34.78;15.82;;;;;;;;;;4994676;28;20038;-70
2024/01/12 05:37:26;;;;;;;30.67;14.20;;;;;;;;;;4995092;28;20056;-68
2024/01/12 05:39:54;;;;;;;31.02;14.95;;;;;;;;;;4995046;28;20043;-70
2024/01/12 05:42:22;;;;;;;32.47;16.85;;;;;;;;;;4994785;28;20117;-69
2024/01/12 15:33:09;;;;;;;63.72;31.70;;;;;;;;;;5351235;23;20053;-64
2024/01/12 15:35:38;;;;;;;72.68;37.60;;;;;;;;;;4841656;29;20041;-64
2024/01/12 15:38:06;;;;;;;72.40;39.15;;;;;;;;;;4860495;29;20046;-64
2024/01/12 15:40:33;;;;;;;62.25;30.33;;;;;;;;;;4860173;29;20049;-64
2024/01/12 15:43:01;;;;;;;62.88;32.03;;;;;;;;;;4860206;29;20499;-65
2024/01/12 15:45:28;;;;;;;63.72;31.58;;;;;;;;;;4860216;29;20480;-64
2024/01/12 15:47:56;;;;;;;64.10;31.83;;;;;;;;;;4860561;29;20046;-64
2024/01/12 15:50:24;;;;;;;66.43;34.10;;;;;;;;;;4843916;29;20046;-64
2024/01/12 15:52:52;;;;;;;67.53;33.10;;;;;;;;;;4860028;29;20049;-64
2024/01/12 15:55:19;;;;;;;64.57;33.33;;;;;;;;;;4860077;29;20052;-64
2024/01/12 15:57:47;;;;;;;68.65;33.58;;;;;;;;;;4860177;29;20045;-64
2024/01/12 16:00:14;;;;;;;63.65;33.40;;;;;;;;;;4860358;29;20041;-64
2024/01/12 16:02:42;;;;;;;62.15;31.33;;;;;;;;;;4863137;29;20448;-64
2024/01/12 16:05:10;;;;;;;98.63;47.78;;;;;;;;;;4859989;29;20144;-64
2024/01/12 16:07:38;;;;;;;98.90;48.42;;;;;;;;;;4860099;29;20149;-61
2024/01/12 16:10:05;;;;;;;161.73;77.35;;;;;;;;;;4843707;29;20045;-61
2024/01/12 16:12:33;;;;;;;95.55;47.90;;;;;;;;;;4860182;29;20041;-63
2024/01/12 16:15:02;;;;;;;69.28;34.97;;;;;;;;;;4859929;29;20046;-61
2024/01/12 16:17:30;;;;;;;78.05;38.75;;;;;;;;;;4859984;29;20050;-61
2024/01/12 16:19:58;;;;;;;110.25;55.17;;;;;;;;;;4860009;29;20041;-61
2024/01/12 16:22:26;;;;;;;131.18;64.15;;;;;;;;;;4859952;29;20046;-62
2024/01/12 16:24:54;;;;;;;117.90;59.88;;;;;;;;;;4857665;29;20829;-63
2024/01/12 16:27:21;;;;;;;109.60;57.10;;;;;;;;;;4853518;29;20539;-63
2024/01/12 16:29:51;;;;;;;84.82;44.05;;;;;;;;;;4851164;29;20049;-63
2024/01/12 16:32:18;;;;;;;90.25;47.47;;;;;;;;;;4850730;29;20046;-62
2024/01/12 16:34:46;;;;;;;71.65;38.50;;;;;;;;;;4851046;29;20046;-63
2024/01/12 16:37:14;;;;;;;74.47;38.60;;;;;;;;;;4846522;29;20408;-63
2024/01/12 16:39:42;;;;;;;73.25;38.00;;;;;;;;;;4841072;29;20050;-64
2024/01/12 16:42:10;;;;;;;69.55;35.80;;;;;;;;;;4840597;29;20050;-61
2024/01/12 16:44:38;;;;;;;60.65;31.52;;;;;;;;;;4842356;29;20409;-63
2024/01/12 16:47:06;;;;;;;76.82;36.58;;;;;;;;;;4844561;29;20469;-62
2024/01/12 16:49:36;;;;;;;70.78;35.38;;;;;;;;;;4844737;29;20464;-60
2024/01/12 16:52:04;;;;;;;99.22;49.03;;;;;;;;;;4844524;29;20480;-62
2024/01/12 16:54:32;;;;;;;79.32;40.78;;;;;;;;;;4844498;29;20399;-62
2024/01/12 16:56:59;;;;;;;64.55;32.13;;;;;;;;;;4844470;29;20046;-61
2024/01/12 16:59:29;;;;;;;56.60;28.25;;;;;;;;;;4844414;29;20508;-62
2024/01/12 17:01:57;;;;;;;56.30;26.88;;;;;;;;;;4844433;29;20049;-62
2024/01/12 17:04:24;;;;;;;61.33;29.92;;;;;;;;;;4844505;29;20060;-62
2024/01/12 17:06:55;;;;;;;74.80;35.80;;;;;;;;;;4844233;29;20112;-62
2024/01/12 17:09:23;;;;;;;80.90;37.17;;;;;;;;;;4844281;29;20412;-62
2024/01/12 17:11:50;;;;;;;67.15;34.45;;;;;;;;;;4844499;29;20050;-62
2024/01/12 17:14:18;;;;;;;59.88;29.33;;;;;;;;;;4843953;29;20057;-62
2024/01/12 17:16:46;;;;;;;67.00;32.78;;;;;;;;;;4844169;29;20042;-63
2024/01/12 17:19:14;;;;;;;73.90;36.92;;;;;;;;;;4844234;29;20046;-69
2024/01/12 17:21:41;;;;;;;78.20;39.97;;;;;;;;;;4843741;29;20094;-62
2024/01/12 17:24:12;;;;;;;84.45;41.42;;;;;;;;;;4846462;29;20073;-61
2024/01/12 17:26:40;;;;;;;85.95;41.25;;;;;;;;;;4853723;29;20046;-62
2024/01/12 17:29:08;;;;;;;75.13;38.88;;;;;;;;;;4859621;29;20072;-62
2024/01/12 17:31:36;;;;;;;83.07;42.08;;;;;;;;;;4861964;29;20049;-61
2024/01/12 17:34:04;;;;;;;89.45;43.22;;;;;;;;;;4862125;29;20060;-61
2024/01/12 17:36:33;;;;;;;90.88;43.97;;;;;;;;;;4862140;29;20061;-62
2024/01/12 17:39:01;;;;;;;93.10;43.40;;;;;;;;;;4862200;29;20400;-61
2024/01/12 17:41:29;;;;;;;90.55;43.05;;;;;;;;;;4862081;29;20543;-61
2024/01/12 17:43:57;;;;;;;95.25;46.45;;;;;;;;;;4862193;29;20056;-61
2024/01/12 17:46:25;;;;;;;97.72;46.58;;;;;;;;;;4862202;29;20037;-61
2024/01/12 17:48:53;;;;;;;96.47;46.55;;;;;;;;;;4861866;29;20125;-61
2024/01/12 17:51:21;;;;;;;90.75;45.67;;;;;;;;;;4862137;29;20048;-61
2024/01/12 17:53:49;;;;;;;92.10;45.60;;;;;;;;;;4861896;29;20042;-63
2024/01/12 17:56:19;;;;;;;107.85;52.75;;;;;;;;;;4856758;29;20049;-61
2024/01/12 17:58:46;;;;;;;106.00;50.50;;;;;;;;;;4853997;29;20045;-61
2024/01/12 18:01:17;;;;;;;111.93;51.22;;;;;;;;;;4854727;29;20124;-62
2024/01/12 18:03:45;;;;;;;110.47;53.75;;;;;;;;;;4854787;29;20054;-61
2024/01/12 18:06:13;;;;;;;106.90;54.30;;;;;;;;;;4855191;29;20069;-62
2024/01/12 18:08:40;;;;;;;100.35;50.53;;;;;;;;;;4854858;29;20042;-62
2024/01/12 18:11:08;;;;;;;93.22;45.80;;;;;;;;;;4854853;29;20520;-61
2024/01/12 18:13:36;;;;;;;81.43;41.40;;;;;;;;;;4854744;29;20702;-62
2024/01/12 18:16:04;;;;;;;79.93;40.55;;;;;;;;;;4855109;29;20051;-62
2024/01/12 18:18:31;;;;;;;79.07;38.63;;;;;;;;;;4854686;29;20071;-62
2024/01/12 18:20:59;;;;;;;73.70;38.00;;;;;;;;;;4854814;29;20079;-62
2024/01/12 18:23:27;;;;;;;72.97;37.22;;;;;;;;;;4838698;29;20049;-63
2024/01/12 18:25:54;;;;;;;77.68;38.17;;;;;;;;;;4855510;29;20152;-62
2024/01/12 18:28:22;;;;;;;75.05;36.42;;;;;;;;;;4838399;29;20145;-62
2024/01/12 18:30:49;;;;;;;64.28;33.35;;;;;;;;;;4838680;29;20640;-63
2024/01/12 18:33:18;;;;;;;59.88;30.55;;;;;;;;;;4838262;29;20057;-62
2024/01/12 18:35:47;;;;;;;65.22;31.23;;;;;;;;;;4854694;29;20041;-63
2024/01/12 18:38:18;;;;;;;62.13;31.92;;;;;;;;;;4855070;29;20522;-63
2024/01/12 18:40:47;;;;;;;71.75;35.63;;;;;;;;;;4822776;29;20045;-64
2024/01/12 18:43:15;;;;;;;81.32;39.05;;;;;;;;;;4833002;29;20087;-64
2024/01/12 18:45:43;;;;;;;78.30;37.85;;;;;;;;;;4854677;29;20056;-63
2024/01/12 18:48:12;;;;;;;69.88;35.97;;;;;;;;;;4854901;29;20379;-63
2024/01/12 18:50:40;;;;;;;67.18;34.50;;;;;;;;;;4854802;29;20053;-64
2024/01/12 18:53:07;;;;;;;65.78;33.53;;;;;;;;;;4854925;29;20388;-63
2024/01/12 18:55:35;;;;;;;67.75;33.83;;;;;;;;;;4854329;29;20494;-64
2024/01/12 18:58:02;;;;;;;71.40;34.50;;;;;;;;;;4854300;29;20133;-64
2024/01/12 19:00:30;;;;;;;73.93;34.35;;;;;;;;;;4854615;29;20404;-64
2024/01/12 19:02:59;;;;;;;79.00;34.15;;;;;;;;;;4854668;29;20048;-63
2024/01/12 19:05:29;;;;;;;72.60;33.95;;;;;;;;;;4855284;29;20046;-64
2024/01/12 19:07:58;;;;;;;71.13;32.42;;;;;;;;;;4854308;29;20120;-65
2024/01/12 19:10:27;;;;;;;71.65;34.47;;;;;;;;;;4854414;29;20157;-65
2024/01/12 19:12:54;;;;;;;59.97;29.27;;;;;;;;;;4854647;29;20862;-64
2024/01/12 19:15:22;;;;;;;58.95;29.55;;;;;;;;;;4854370;29;20133;-63
2024/01/12 19:17:50;;;;;;;60.85;29.90;;;;;;;;;;4854415;29;20515;-72
2024/01/12 19:20:18;;;;;;;54.92;27.20;;;;;;;;;;4837441;29;20067;-74
2024/01/12 19:22:45;;;;;;;58.35;29.02;;;;;;;;;;4836363;29;20053;-73
2024/01/12 19:25:13;;;;;;;56.33;27.83;;;;;;;;;;4854902;29;20051;-73
2024/01/12 19:27:41;;;;;;;59.22;28.00;;;;;;;;;;4854685;29;20132;-78
2024/01/12 19:30:09;;;;;;;61.10;29.15;;;;;;;;;;4854991;29;20046;-76
2024/01/12 19:32:37;;;;;;;57.58;28.40;;;;;;;;;;4854176;29;20110;-75
2024/01/12 19:35:06;;;;;;;58.65;28.92;;;;;;;;;;4854883;29;20045;-76
2024/01/12 19:37:35;;;;;;;57.03;27.65;;;;;;;;;;4855018;29;20053;-74
2024/01/12 19:40:03;;;;;;;65.53;32.15;;;;;;;;;;4854230;29;20045;-75
2024/01/12 19:42:30;;;;;;;59.90;30.98;;;;;;;;;;4838306;29;20049;-64
2024/01/12 19:45:00;;;;;;;54.42;28.17;;;;;;;;;;4854534;29;20053;-64
2024/01/12 19:47:29;;;;;;;59.75;29.45;;;;;;;;;;4854653;29;20118;-64
2024/01/12 19:49:57;;;;;;;61.85;30.02;;;;;;;;;;4854924;29;20052;-64
2024/01/12 19:52:24;;;;;;;67.28;29.13;;;;;;;;;;4854620;29;20044;-64
2024/01/12 19:54:52;;;;;;;58.10;28.20;;;;;;;;;;4854853;29;20077;-64
2024/01/12 19:57:20;;;;;;;59.10;28.80;;;;;;;;;;4853745;29;20069;-65
2024/01/12 19:59:47;;;;;;;57.20;27.58;;;;;;;;;;4837011;29;20448;-64
2024/01/12 20:02:15;;;;;;;60.28;28.40;;;;;;;;;;4838233;29;20420;-64
2024/01/12 20:04:43;;;;;;;54.25;25.23;;;;;;;;;;4854626;29;20060;-64
2024/01/12 20:07:15;;;;;;;53.00;24.45;;;;;;;;;;4854542;29;20064;-67
2024/01/12 20:09:42;;;;;;;57.00;25.80;;;;;;;;;;4837599;29;20103;-65
2024/01/12 20:12:10;;;;;;;51.42;25.40;;;;;;;;;;4853724;29;20041;-64
2024/01/12 20:14:38;;;;;;;53.72;23.48;;;;;;;;;;4854139;29;20044;-66
2024/01/12 20:17:05;;;;;;;48.58;23.27;;;;;;;;;;4854080;29;20103;-66
2024/01/12 20:19:33;;;;;;;51.17;23.95;;;;;;;;;;4829265;29;20067;-65
2024/01/12 20:22:01;;;;;;;53.28;24.48;;;;;;;;;;4857722;29;20033;-68
2024/01/12 20:24:29;;;;;;;55.95;25.10;;;;;;;;;;4857035;29;20061;-65
2024/01/12 20:26:56;;;;;;;51.78;24.83;;;;;;;;;;4855933;29;20496;-64
2024/01/12 20:29:24;;;;;;;51.40;23.60;;;;;;;;;;4857525;29;20053;-63
2024/01/12 20:31:51;;;;;;;52.80;23.52;;;;;;;;;;4835742;29;20736;-64
2024/01/12 20:34:19;;;;;;;48.33;22.95;;;;;;;;;;4851902;29;20439;-64
2024/01/12 20:36:47;;;;;;;54.72;24.60;;;;;;;;;;4857847;29;20135;-64
2024/01/12 20:39:15;;;;;;;57.25;24.45;;;;;;;;;;4832029;29;20145;-64
2024/01/12 20:41:43;;;;;;;55.25;24.50;;;;;;;;;;4855610;29;20805;-64
2024/01/12 20:44:12;;;;;;;53.15;24.13;;;;;;;;;;4856204;29;20049;-65
2024/01/12 20:46:40;;;;;;;49.13;23.70;;;;;;;;;;4857085;29;20128;-64
2024/01/12 20:49:08;;;;;;;49.92;23.75;;;;;;;;;;4840499;29;20045;-64
2024/01/12 20:51:36;;;;;;;47.42;24.35;;;;;;;;;;4857598;29;20049;-64
2024/01/12 20:54:03;;;;;;;53.22;24.77;;;;;;;;;;4857536;29;20562;-65
2024/01/12 20:56:31;;;;;;;50.85;25.55;;;;;;;;;;4857353;29;20122;-64
2024/01/12 20:58:59;;;;;;;48.70;23.70;;;;;;;;;;4857192;29;20049;-64
2024/01/12 21:01:27;;;;;;;49.30;22.58;;;;;;;;;;4858194;29;20053;-64
2024/01/12 21:03:54;;;;;;;47.95;24.35;;;;;;;;;;4862529;29;20387;-64
2024/01/12 21:06:22;;;;;;;51.97;23.98;;;;;;;;;;4861615;29;20045;-64
2024/01/12 21:08:49;;;;;;;52.88;23.90;;;;;;;;;;4851030;29;20046;-65
2024/01/12 21:11:17;;;;;;;59.15;25.38;;;;;;;;;;4844252;29;20050;-65
2024/01/12 21:13:45;;;;;;;56.67;23.98;;;;;;;;;;4844482;29;20068;-65
2024/01/12 21:16:12;;;;;;;48.95;22.90;;;;;;;;;;4844213;29;20038;-65
2024/01/12 21:18:41;;;;;;;51.78;23.75;;;;;;;;;;4843860;29;20133;-65
2024/01/12 21:21:10;;;;;;;55.97;25.60;;;;;;;;;;4844057;29;20526;-65
2024/01/12 21:23:38;;;;;;;53.17;24.45;;;;;;;;;;4844145;29;20038;-65
2024/01/12 21:26:06;;;;;;;55.40;25.50;;;;;;;;;;4827679;29;20046;-65
2024/01/12 21:28:33;;;;;;;52.60;24.77;;;;;;;;;;4843854;29;20057;-65
2024/01/12 21:31:01;;;;;;;51.78;23.95;;;;;;;;;;4842842;29;20042;-65
2024/01/12 21:33:29;;;;;;;49.10;23.15;;;;;;;;;;4843822;29;20058;-65
2024/01/12 21:35:58;;;;;;;55.85;24.42;;;;;;;;;;4843725;29;20042;-65
2024/01/12 21:38:26;;;;;;;54.15;23.60;;;;;;;;;;4843412;29;20114;-64
2024/01/12 21:40:53;;;;;;;57.17;25.27;;;;;;;;;;4827294;29;20057;-64
2024/01/12 21:43:21;;;;;;;54.38;24.27;;;;;;;;;;4843918;29;20038;-65
2024/01/12 21:45:48;;;;;;;54.70;24.70;;;;;;;;;;4827195;29;20056;-64
2024/01/12 21:48:16;;;;;;;54.45;25.95;;;;;;;;;;4843618;29;20045;-65
2024/01/12 21:50:45;;;;;;;57.65;25.45;;;;;;;;;;4843584;29;20038;-65
2024/01/12 21:53:13;;;;;;;49.13;23.58;;;;;;;;;;4843332;29;20079;-65
2024/01/12 21:55:40;;;;;;;59.15;25.42;;;;;;;;;;4843528;29;20370;-65
2024/01/12 21:58:08;;;;;;;52.58;25.02;;;;;;;;;;4843660;29;20053;-65
2024/01/12 22:00:35;;;;;;;52.42;24.17;;;;;;;;;;4826650;29;20073;-65
2024/01/12 22:03:03;;;;;;;54.95;23.55;;;;;;;;;;4843363;29;20046;-65
2024/01/12 22:05:31;;;;;;;59.08;24.95;;;;;;;;;;4842894;29;20079;-65
2024/01/12 22:07:58;;;;;;;54.70;25.52;;;;;;;;;;4826819;29;20307;-65
2024/01/12 22:10:26;;;;;;;56.28;24.67;;;;;;;;;;4843151;29;20129;-65
2024/01/12 22:12:54;;;;;;;54.58;24.13;;;;;;;;;;4843309;29;20044;-65
2024/01/12 22:15:23;;;;;;;54.95;24.48;;;;;;;;;;4842938;29;20488;-65
2024/01/12 22:17:51;;;;;;;55.00;25.80;;;;;;;;;;4843127;29;20045;-65
2024/01/12 22:20:19;;;;;;;58.80;25.50;;;;;;;;;;4826847;29;20153;-65
2024/01/12 22:22:46;;;;;;;52.08;23.98;;;;;;;;;;4842823;29;20389;-65
2024/01/12 22:25:15;;;;;;;52.22;23.75;;;;;;;;;;4842990;29;20132;-65
2024/01/12 22:27:43;;;;;;;54.03;24.25;;;;;;;;;;4842995;29;20052;-65
2024/01/12 22:30:10;;;;;;;54.13;23.60;;;;;;;;;;4842773;29;20052;-65
2024/01/12 22:32:38;;;;;;;49.58;24.83;;;;;;;;;;4842560;29;20054;-65
2024/01/12 22:35:06;;;;;;;53.70;23.33;;;;;;;;;;4842703;29;20068;-65
2024/01/12 22:37:34;;;;;;;52.38;24.42;;;;;;;;;;4843006;29;20045;-65
2024/01/12 22:40:03;;;;;;;51.88;25.27;;;;;;;;;;4842664;29;20057;-65
2024/01/12 22:42:32;;;;;;;54.85;23.85;;;;;;;;;;4842563;29;20053;-65
2024/01/12 22:45:00;;;;;;;57.65;23.77;;;;;;;;;;4842632;29;20124;-65
2024/01/12 22:47:28;;;;;;;56.17;23.58;;;;;;;;;;4842586;29;20046;-65
2024/01/12 22:49:55;;;;;;;50.63;24.25;;;;;;;;;;4842732;29;20381;-66
2024/01/12 22:52:23;;;;;;;54.78;24.90;;;;;;;;;;4842476;29;20100;-66
2024/01/12 22:54:50;;;;;;;49.85;24.05;;;;;;;;;;4842654;29;20046;-65
2024/01/12 22:57:18;;;;;;;58.30;25.45;;;;;;;;;;4842486;29;20068;-65
2024/01/12 22:59:46;;;;;;;56.15;24.20;;;;;;;;;;4842395;29;20049;-65
2024/01/12 23:02:13;;;;;;;46.10;23.65;;;;;;;;;;4842455;29;20416;-66
2024/01/12 23:04:41;;;;;;;55.63;26.00;;;;;;;;;;4842343;29;20074;-66
2024/01/12 23:07:08;;;;;;;58.88;26.48;;;;;;;;;;4826403;29;20448;-66
2024/01/12 23:09:36;;;;;;;56.65;26.73;;;;;;;;;;4842066;29;20081;-66
2024/01/12 23:12:05;;;;;;;56.83;28.17;;;;;;;;;;4842193;29;20042;-66
2024/01/12 23:14:32;;;;;;;62.03;27.65;;;;;;;;;;4842351;29;20102;-66
2024/01/12 23:17:00;;;;;;;65.78;29.13;;;;;;;;;;4842146;29;20046;-65
2024/01/12 23:19:27;;;;;;;62.72;30.98;;;;;;;;;;4842081;29;20389;-66
2024/01/12 23:21:55;;;;;;;63.15;29.63;;;;;;;;;;4842045;29;20069;-66
2024/01/12 23:24:23;;;;;;;60.58;28.77;;;;;;;;;;4842089;29;20545;-66
2024/01/12 23:26:50;;;;;;;66.25;29.85;;;;;;;;;;4842074;29;20056;-65
2024/01/12 23:29:18;;;;;;;64.60;29.40;;;;;;;;;;4841920;29;20088;-65
2024/01/12 23:31:45;;;;;;;59.35;28.75;;;;;;;;;;4841912;29;20515;-65
2024/01/12 23:34:13;;;;;;;68.05;29.58;;;;;;;;;;4842037;29;20068;-65
2024/01/12 23:36:41;;;;;;;58.95;27.90;;;;;;;;;;4841870;29;20038;-65
2024/01/12 23:39:10;;;;;;;54.38;26.75;;;;;;;;;;4841857;29;20094;-65
2024/01/12 23:41:39;;;;;;;59.92;27.17;;;;;;;;;;4841941;29;20069;-65
2024/01/12 23:44:07;;;;;;;59.15;27.25;;;;;;;;;;4841950;29;20038;-65
2024/01/12 23:46:35;;;;;;;61.33;27.98;;;;;;;;;;4841864;29;20064;-66
2024/01/12 23:49:03;;;;;;;61.72;28.15;;;;;;;;;;4841842;29;20050;-66
2024/01/12 23:51:30;;;;;;;67.10;28.88;;;;;;;;;;4841727;29;20058;-65
2024/01/12 23:53:59;;;;;;;64.40;29.50;;;;;;;;;;4842030;29;20053;-65
2024/01/12 23:56:27;;;;;;;57.85;27.60;;;;;;;;;;4829409;29;20049;-65
2024/01/12 23:58:55;;;;;;;65.18;29.27;;;;;;;;;;4845515;29;20054;-65
